Time;durP1;ratioP1;P1;durP2;ratioP2;P2;SDS_P1;SDS_P2;PMS_P1;PMS_P2;Temp;Humidity;BMP_temperature;BMP_pressure;BME280_temperature;BME280_humidity;BME280_pressure;Samples;Min_cycle;Max_cycle;Signal;HPM_P1;HPM_P2
2021/03/12 00:01:08;;;;;;;18.15;17.20;;;7.30;85.90;;;;;;5072585;28;20189;-78
2021/03/12 00:03:36;;;;;;;19.10;18.20;;;7.30;85.50;;;;;;5072417;28;20206;-78
2021/03/12 00:06:07;;;;;;;18.67;17.67;;;7.30;85.70;;;;;;5072450;28;20544;-76
2021/03/12 00:08:39;;;;;;;18.25;17.35;;;7.40;85.60;;;;;;5072589;28;20225;-78
2021/03/12 00:11:06;;;;;;;18.52;17.40;;;7.40;84.80;;;;;;5072570;28;20247;-78
2021/03/12 00:13:34;;;;;;;18.02;17.13;;;7.50;84.20;;;;;;5072632;28;20199;-77
2021/03/12 00:16:00;;;;;;;18.38;17.40;;;7.60;83.70;;;;;;5072254;28;20196;-78
2021/03/12 00:18:30;;;;;;;18.05;17.15;;;7.60;83.20;;;;;;5072362;28;20224;-78
2021/03/12 00:20:56;;;;;;;17.90;17.10;;;7.70;82.70;;;;;;5072623;28;20190;-78
2021/03/12 00:23:23;;;;;;;18.70;17.70;;;7.80;82.40;;;;;;5072657;28;20192;-78
2021/03/12 00:25:49;;;;;;;19.40;18.40;;;7.80;82.00;;;;;;5072419;28;20207;-78
2021/03/12 00:28:18;;;;;;;20.77;19.67;;;7.90;81.20;;;;;;5072351;28;20287;-78
2021/03/12 00:30:46;;;;;;;20.10;19.00;;;7.90;80.00;;;;;;5072562;28;20693;-78
2021/03/12 00:33:13;;;;;;;20.20;19.10;;;8.00;80.00;;;;;;5074981;28;20205;-78
2021/03/12 00:35:42;;;;;;;19.65;18.75;;;8.00;79.60;;;;;;5076265;28;20578;-78
2021/03/12 00:38:09;;;;;;;20.08;19.08;;;8.10;79.30;;;;;;5076163;28;20210;-78
2021/03/12 00:40:38;;;;;;;20.85;19.65;;;8.20;79.30;;;;;;5076247;28;20199;-78
2021/03/12 00:43:04;;;;;;;20.00;19.00;;;8.20;79.40;;;;;;5076180;28;20225;-78
2021/03/12 00:45:33;;;;;;;20.60;19.25;;;8.30;79.50;;;;;;5076192;28;20202;-78
2021/03/12 00:48:01;;;;;;;20.50;19.30;;;8.30;79.00;;;;;;5076363;28;20560;-79
2021/03/12 00:50:32;;;;;;;21.45;20.25;;;8.30;78.60;;;;;;5076274;28;20327;-78
2021/03/12 00:52:58;;;;;;;20.60;19.60;;;8.40;77.30;;;;;;5076409;28;20219;-75
2021/03/12 00:55:24;;;;;;;21.70;20.40;;;8.40;77.00;;;;;;5075653;28;20192;-75
2021/03/12 00:57:51;;;;;;;20.88;19.75;;;8.40;77.00;;;;;;5076016;28;20283;-78
2021/03/12 01:00:20;;;;;;;21.20;19.90;;;8.40;76.70;;;;;;5076332;28;20216;-78
2021/03/12 01:02:46;;;;;;;21.38;19.88;;;8.40;76.10;;;;;;5076185;28;20202;-78
2021/03/12 01:05:14;;;;;;;20.75;19.65;;;8.50;75.30;;;;;;5075526;28;20207;-76
2021/03/12 01:07:40;;;;;;;22.50;21.30;;;8.50;75.50;;;;;;5075318;28;20604;-76
2021/03/12 01:10:08;;;;;;;21.05;19.85;;;8.50;75.40;;;;;;5075342;28;20276;-76
2021/03/12 01:12:34;;;;;;;21.42;20.30;;;8.50;75.50;;;;;;5075280;28;20200;-76
2021/03/12 01:15:01;;;;;;;21.38;20.00;;;8.60;74.40;;;;;;5075456;28;20659;-76
2021/03/12 01:17:27;;;;;;;22.70;21.20;;;8.60;74.20;;;;;;5075176;28;20196;-76
2021/03/12 01:19:53;;;;;;;22.33;21.05;;;8.60;74.40;;;;;;5075203;28;20220;-76
2021/03/12 01:22:21;;;;;;;22.20;21.00;;;8.60;73.70;;;;;;5075201;28;20200;-76
2021/03/12 01:24:47;;;;;;;22.80;21.40;;;8.60;74.10;;;;;;5075320;28;20222;-76
2021/03/12 01:27:13;;;;;;;22.67;21.48;;;8.60;72.70;;;;;;5075009;28;20207;-76
2021/03/12 01:29:40;;;;;;;22.40;21.05;;;8.60;73.00;;;;;;5075037;28;20220;-76
2021/03/12 01:32:07;;;;;;;23.02;21.73;;;8.50;73.30;;;;;;5075138;28;20192;-76
2021/03/12 01:34:34;;;;;;;23.38;22.08;;;8.50;72.30;;;;;;5075073;28;20278;-76
2021/03/12 01:37:00;;;;;;;23.08;21.55;;;8.50;70.70;;;;;;5074787;28;20202;-76
2021/03/12 01:39:27;;;;;;;22.98;21.77;;;8.50;69.70;;;;;;5074964;28;20216;-76
2021/03/12 01:41:54;;;;;;;23.05;21.70;;;8.50;70.60;;;;;;5074891;28;20227;-76
2021/03/12 01:44:20;;;;;;;23.20;21.90;;;8.50;70.70;;;;;;5074510;28;20210;-76
2021/03/12 01:46:47;;;;;;;22.50;21.27;;;8.50;70.40;;;;;;5074518;28;20196;-76
2021/03/12 01:49:13;;;;;;;23.10;21.60;;;8.50;70.40;;;;;;5074761;28;20216;-76
2021/03/12 01:51:39;;;;;;;22.95;21.75;;;8.50;70.40;;;;;;5074519;28;20237;-76
2021/03/12 01:54:06;;;;;;;23.08;21.80;;;8.50;70.50;;;;;;5074790;28;20277;-76
2021/03/12 01:56:33;;;;;;;23.40;22.10;;;8.60;70.90;;;;;;5074594;28;20196;-76
2021/03/12 01:59:00;;;;;;;23.15;21.73;;;8.60;71.70;;;;;;5074585;28;20803;-76
2021/03/12 02:01:26;;;;;;;23.80;22.40;;;8.60;72.30;;;;;;5074731;28;20588;-76
2021/03/12 02:03:52;;;;;;;22.60;21.40;;;8.60;72.70;;;;;;5074724;28;20225;-76
2021/03/12 02:06:19;;;;;;;22.77;21.35;;;8.50;71.70;;;;;;5074251;28;20206;-76
2021/03/12 02:08:45;;;;;;;22.05;20.73;;;8.40;73.20;;;;;;5074572;28;20215;-76
2021/03/12 02:11:12;;;;;;;22.55;21.35;;;8.30;73.00;;;;;;5074267;28;20313;-78
2021/03/12 02:13:44;;;;;;;22.58;21.33;;;8.30;73.90;;;;;;5074403;28;20234;-78
2021/03/12 02:16:14;;;;;;;22.08;20.90;;;8.20;74.20;;;;;;5074066;28;20640;-76
2021/03/12 02:18:50;;;;;;;22.52;21.20;;;8.10;73.80;;;;;;5074029;28;20219;-76
2021/03/12 02:21:25;;;;;;;22.70;21.40;;;8.00;74.50;;;;;;5074166;28;20203;-76
2021/03/12 02:24:05;;;;;;;22.40;20.80;;;8.00;74.70;;;;;;5074155;28;20199;-76
2021/03/12 02:26:50;;;;;;;22.30;20.85;;;7.90;74.70;;;;;;5073984;28;20211;-76
2021/03/12 02:29:20;;;;;;;22.75;21.35;;;7.90;75.10;;;;;;5073939;28;20311;-76
2021/03/12 02:31:49;;;;;;;22.58;21.30;;;7.80;75.00;;;;;;5073874;28;20226;-76
2021/03/12 02:34:17;;;;;;;21.98;20.75;;;7.90;74.50;;;;;;5073893;28;20278;-76
2021/03/12 02:36:50;;;;;;;22.30;20.85;;;7.80;74.80;;;;;;5073682;28;20225;-76
2021/03/12 02:39:20;;;;;;;22.48;21.17;;;7.80;75.00;;;;;;5073846;28;20223;-76
2021/03/12 02:41:49;;;;;;;22.25;21.05;;;7.70;74.60;;;;;;5073781;28;20196;-76
2021/03/12 02:44:17;;;;;;;22.58;21.33;;;7.70;74.70;;;;;;5073680;28;20204;-76
2021/03/12 02:46:47;;;;;;;22.80;21.38;;;7.70;74.20;;;;;;5073053;28;20196;-76
2021/03/12 02:49:14;;;;;;;22.77;21.27;;;7.70;74.40;;;;;;5073481;28;20216;-76
2021/03/12 02:51:41;;;;;;;22.50;21.20;;;7.60;73.60;;;;;;5073258;28;20223;-76
2021/03/12 02:54:09;;;;;;;22.05;20.95;;;7.60;73.40;;;;;;5073400;28;20559;-76
2021/03/12 02:56:36;;;;;;;23.17;21.75;;;7.50;73.60;;;;;;5072577;28;20194;-76
2021/03/12 02:59:03;;;;;;;22.83;21.63;;;7.50;73.90;;;;;;5073339;28;20223;-76
2021/03/12 03:01:31;;;;;;;22.17;21.02;;;7.50;74.20;;;;;;5073390;28;20195;-76
2021/03/12 03:03:58;;;;;;;22.58;21.17;;;7.50;73.70;;;;;;5073170;28;20286;-75
2021/03/12 03:06:25;;;;;;;22.70;21.50;;;7.50;73.50;;;;;;5073131;28;20253;-75
2021/03/12 03:08:53;;;;;;;22.17;21.00;;;7.50;73.70;;;;;;5073257;28;20224;-76
2021/03/12 03:11:19;;;;;;;24.15;22.65;;;7.40;74.10;;;;;;5073092;28;20222;-76
2021/03/12 03:13:47;;;;;;;23.48;21.73;;;7.40;74.20;;;;;;5073085;28;20666;-76
2021/03/12 03:16:19;;;;;;;22.35;20.70;;;7.30;74.90;;;;;;5072942;28;20253;-76
2021/03/12 03:18:47;;;;;;;21.70;20.48;;;7.40;75.40;;;;;;5073018;28;20220;-76
2021/03/12 03:21:15;;;;;;;21.92;20.70;;;7.40;75.50;;;;;;5073012;28;20196;-76
2021/03/12 03:23:43;;;;;;;23.05;21.65;;;7.30;75.70;;;;;;5072885;28;20192;-76
2021/03/12 03:26:10;;;;;;;22.45;21.15;;;7.30;75.30;;;;;;5072779;28;20256;-76
2021/03/12 03:28:36;;;;;;;23.38;21.67;;;7.30;74.40;;;;;;5072866;28;20232;-76
2021/03/12 03:31:04;;;;;;;22.85;21.35;;;7.40;73.50;;;;;;5072725;28;20226;-76
2021/03/12 03:33:31;;;;;;;22.10;20.80;;;7.40;73.30;;;;;;5072875;28;20247;-76
2021/03/12 03:35:58;;;;;;;23.08;21.42;;;7.40;73.60;;;;;;5072522;28;20568;-76
2021/03/12 03:38:25;;;;;;;23.60;22.30;;;7.40;73.40;;;;;;5072782;28;20306;-78
2021/03/12 03:40:52;;;;;;;23.42;21.88;;;7.40;72.60;;;;;;5072749;28;20603;-78
2021/03/12 03:43:23;;;;;;;22.92;21.60;;;7.40;72.30;;;;;;5072908;28;20288;-78
2021/03/12 03:45:50;;;;;;;24.65;22.88;;;7.40;71.50;;;;;;5072439;28;20259;-78
2021/03/12 03:48:17;;;;;;;24.63;22.88;;;7.40;71.10;;;;;;5072723;28;20206;-78
2021/03/12 03:50:45;;;;;;;23.70;22.33;;;7.40;70.60;;;;;;5072437;28;20272;-78
2021/03/12 03:53:13;;;;;;;23.80;22.40;;;7.50;70.80;;;;;;5072772;28;20196;-78
2021/03/12 03:55:40;;;;;;;22.67;21.40;;;7.50;71.00;;;;;;5072565;28;20199;-78
2021/03/12 03:58:08;;;;;;;24.38;22.90;;;7.50;69.80;;;;;;5072680;28;20269;-78
2021/03/12 04:00:35;;;;;;;22.40;21.20;;;7.50;69.90;;;;;;5072581;28;20188;-78
2021/03/12 04:03:03;;;;;;;22.65;21.35;;;7.30;68.80;;;;;;5072420;28;20211;-78
2021/03/12 04:05:30;;;;;;;23.35;22.05;;;7.30;68.70;;;;;;5072481;28;20191;-78
2021/03/12 04:07:57;;;;;;;25.92;24.15;;;7.40;67.90;;;;;;5076430;28;20202;-78
2021/03/12 04:10:25;;;;;;;23.65;22.33;;;7.40;67.70;;;;;;5076555;28;20279;-78
2021/03/12 04:12:51;;;;;;;23.77;22.38;;;7.40;66.70;;;;;;5076639;28;20603;-78
2021/03/12 04:15:18;;;;;;;23.80;22.50;;;7.40;66.80;;;;;;5077890;28;20563;-77
2021/03/12 04:17:45;;;;;;;24.98;23.45;;;7.50;66.30;;;;;;5076367;28;20657;-77
2021/03/12 04:20:14;;;;;;;24.02;22.63;;;7.50;66.00;;;;;;5076441;28;20226;-78
2021/03/12 04:22:41;;;;;;;23.52;22.25;;;7.50;65.80;;;;;;5076362;28;20195;-78
2021/03/12 04:25:08;;;;;;;24.15;22.42;;;7.50;65.60;;;;;;5076397;28;20202;-78
2021/03/12 04:27:36;;;;;;;23.60;22.30;;;7.60;65.40;;;;;;5076194;28;20205;-78
2021/03/12 04:30:04;;;;;;;23.77;22.58;;;7.60;65.00;;;;;;5076075;28;20232;-77
2021/03/12 04:32:30;;;;;;;24.38;22.88;;;7.50;65.60;;;;;;5076140;28;20206;-76
2021/03/12 04:34:57;;;;;;;23.50;22.10;;;7.50;66.90;;;;;;5076243;28;20206;-76
2021/03/12 04:37:24;;;;;;;23.88;22.40;;;7.60;65.80;;;;;;5075979;28;20199;-76
2021/03/12 04:39:52;;;;;;;25.30;23.63;;;7.60;64.70;;;;;;5076061;28;20218;-76
2021/03/12 04:42:19;;;;;;;23.70;22.30;;;7.60;65.10;;;;;;5076053;28;20199;-76
2021/03/12 04:44:46;;;;;;;25.90;24.27;;;7.50;64.20;;;;;;5075700;28;20204;-76
2021/03/12 04:47:12;;;;;;;25.27;23.67;;;7.50;64.10;;;;;;5075774;28;20670;-76
2021/03/12 04:49:39;;;;;;;23.45;22.00;;;7.50;64.30;;;;;;5075804;28;20699;-75
2021/03/12 04:52:06;;;;;;;26.60;24.88;;;7.50;64.50;;;;;;5075514;28;20273;-76
2021/03/12 04:54:33;;;;;;;24.98;23.40;;;7.50;64.50;;;;;;5075881;28;20284;-76
2021/03/12 04:57:00;;;;;;;25.48;24.00;;;7.60;65.00;;;;;;5075459;28;20257;-76
2021/03/12 04:59:27;;;;;;;23.25;21.77;;;7.60;64.20;;;;;;5075785;28;20305;-76
2021/03/12 05:01:54;;;;;;;24.65;23.02;;;7.50;64.10;;;;;;5075506;28;20188;-76
2021/03/12 05:04:21;;;;;;;25.27;23.70;;;7.60;63.70;;;;;;5075386;28;20286;-76
2021/03/12 05:06:48;;;;;;;23.42;21.92;;;7.60;63.90;;;;;;5075304;28;20285;-76
2021/03/12 05:09:15;;;;;;;22.95;21.55;;;7.50;63.90;;;;;;5075412;28;20215;-75
2021/03/12 05:11:43;;;;;;;25.45;23.75;;;7.50;64.30;;;;;;5075297;28;20219;-75
2021/03/12 05:14:10;;;;;;;24.70;23.13;;;7.50;64.00;;;;;;5075480;28;20201;-76
2021/03/12 05:16:36;;;;;;;23.83;22.05;;;7.60;63.60;;;;;;5075196;28;20249;-76
2021/03/12 05:19:04;;;;;;;22.75;21.40;;;7.50;64.00;;;;;;5074533;28;20230;-76
2021/03/12 05:21:30;;;;;;;24.67;23.25;;;7.50;64.30;;;;;;5075329;28;20684;-76
2021/03/12 05:23:57;;;;;;;23.80;22.30;;;7.50;64.50;;;;;;5075329;28;20199;-75
2021/03/12 05:26:24;;;;;;;25.15;23.42;;;7.60;64.40;;;;;;5075023;28;20200;-76
2021/03/12 05:28:53;;;;;;;23.85;22.45;;;7.50;64.30;;;;;;5075100;28;20220;-76
2021/03/12 05:31:20;;;;;;;24.98;23.27;;;7.50;64.20;;;;;;5075002;28;20689;-76
2021/03/12 05:33:46;;;;;;;24.50;23.10;;;7.50;64.20;;;;;;5075149;28;20203;-76
2021/03/12 05:36:13;;;;;;;23.58;21.95;;;7.50;64.90;;;;;;5074983;28;20199;-76
2021/03/12 05:38:40;;;;;;;23.80;22.30;;;7.50;65.10;;;;;;5074998;28;20215;-78
2021/03/12 05:41:08;;;;;;;25.10;23.52;;;7.50;65.50;;;;;;5074908;28;20198;-78
2021/03/12 05:43:34;;;;;;;24.73;23.13;;;7.60;65.60;;;;;;5075111;28;20200;-78
2021/03/12 05:46:01;;;;;;;24.30;22.63;;;7.60;65.60;;;;;;5074398;28;20210;-78
2021/03/12 05:48:28;;;;;;;23.20;21.80;;;7.60;65.50;;;;;;5074858;28;20275;-78
2021/03/12 05:50:58;;;;;;;25.77;24.02;;;7.60;65.10;;;;;;5074462;28;20219;-78
2021/03/12 05:53:26;;;;;;;24.60;23.08;;;7.60;65.60;;;;;;5074848;28;20197;-78
2021/03/12 05:55:54;;;;;;;23.88;22.15;;;7.60;65.70;;;;;;5074430;28;20734;-79
2021/03/12 05:58:21;;;;;;;24.98;23.23;;;7.70;65.70;;;;;;5074660;28;20364;-76
2021/03/12 06:00:47;;;;;;;24.77;22.98;;;7.60;65.90;;;;;;5074614;28;20188;-76
2021/03/12 06:03:14;;;;;;;24.73;23.30;;;7.60;66.20;;;;;;5074372;28;20208;-76
2021/03/12 06:05:42;;;;;;;25.27;23.83;;;7.70;66.60;;;;;;5074249;28;20265;-75
2021/03/12 06:08:09;;;;;;;24.48;22.88;;;7.70;66.40;;;;;;5074297;28;20677;-76
2021/03/12 06:10:36;;;;;;;26.80;25.20;;;7.60;66.30;;;;;;5074328;28;20222;-76
2021/03/12 06:13:03;;;;;;;25.25;23.65;;;7.70;66.00;;;;;;5074366;28;20675;-76
2021/03/12 06:15:34;;;;;;;24.15;22.75;;;7.70;66.30;;;;;;5074239;28;20196;-75
2021/03/12 06:18:12;;;;;;;25.63;23.90;;;7.70;66.50;;;;;;5074184;28;20560;-76
2021/03/12 06:20:39;;;;;;;26.60;24.98;;;7.70;66.40;;;;;;5074174;28;20205;-75
2021/03/12 06:23:05;;;;;;;23.13;21.83;;;7.60;66.70;;;;;;5074013;28;20196;-76
2021/03/12 06:25:32;;;;;;;24.85;23.33;;;7.60;67.20;;;;;;5073979;28;20204;-75
2021/03/12 06:28:13;;;;;;;25.60;24.10;;;7.70;67.00;;;;;;5073977;28;20699;-76
2021/03/12 06:30:40;;;;;;;23.40;21.83;;;7.80;66.80;;;;;;5072890;28;20224;-75
2021/03/12 06:33:06;;;;;;;24.10;22.80;;;7.80;67.30;;;;;;5073931;28;20196;-76
2021/03/12 06:35:37;;;;;;;23.55;22.25;;;7.70;67.60;;;;;;5073695;28;20256;-75
2021/03/12 06:38:08;;;;;;;23.98;22.20;;;7.70;68.00;;;;;;5073769;28;20206;-76
2021/03/12 06:40:36;;;;;;;23.73;22.33;;;7.60;68.50;;;;;;5073765;28;20196;-76
2021/03/12 06:43:10;;;;;;;23.30;21.98;;;7.60;68.70;;;;;;5073708;28;20203;-76
2021/03/12 06:45:56;;;;;;;25.25;23.77;;;7.60;68.90;;;;;;5073244;28;20287;-75
2021/03/12 06:48:24;;;;;;;23.27;21.98;;;7.70;68.80;;;;;;5073591;28;20302;-76
2021/03/12 06:50:51;;;;;;;24.02;22.20;;;7.70;68.70;;;;;;5073421;28;20223;-76
2021/03/12 06:53:24;;;;;;;24.13;22.60;;;7.80;68.70;;;;;;5073530;28;20200;-75
2021/03/12 06:55:51;;;;;;;24.42;23.02;;;7.80;69.50;;;;;;5073145;28;20695;-75
2021/03/12 06:58:18;;;;;;;23.60;21.92;;;7.80;70.90;;;;;;5073338;28;20666;-76
2021/03/12 07:00:45;;;;;;;23.73;21.92;;;7.80;69.80;;;;;;5073428;28;20716;-76
2021/03/12 07:03:27;;;;;;;23.48;22.10;;;7.90;69.30;;;;;;5073280;28;20219;-78
2021/03/12 07:06:05;;;;;;;24.48;22.95;;;7.90;68.90;;;;;;5073237;28;20202;-78
2021/03/12 07:08:34;;;;;;;23.58;22.08;;;7.80;69.40;;;;;;5073131;28;20230;-76
2021/03/12 07:11:02;;;;;;;24.10;22.60;;;7.80;69.70;;;;;;5073086;28;20222;-76
2021/03/12 07:13:29;;;;;;;23.63;22.13;;;7.80;70.00;;;;;;5073206;28;20202;-78
2021/03/12 07:15:57;;;;;;;23.58;22.17;;;7.80;70.40;;;;;;5072988;28;20260;-75
2021/03/12 07:18:24;;;;;;;24.20;22.90;;;7.80;70.90;;;;;;5073101;28;20632;-76
2021/03/12 07:20:51;;;;;;;25.38;23.80;;;7.90;71.10;;;;;;5073078;28;20203;-76
2021/03/12 07:23:20;;;;;;;26.55;24.63;;;8.00;71.10;;;;;;5073101;28;20200;-76
2021/03/12 07:25:47;;;;;;;23.98;22.58;;;8.20;70.70;;;;;;5072886;28;20200;-76
2021/03/12 07:28:15;;;;;;;23.50;22.30;;;8.30;71.00;;;;;;5072958;28;20762;-76
2021/03/12 07:30:44;;;;;;;24.80;23.30;;;8.40;70.10;;;;;;5072842;28;20310;-76
2021/03/12 07:33:11;;;;;;;25.05;23.55;;;8.50;69.80;;;;;;5072944;28;20196;-76
2021/03/12 07:35:38;;;;;;;23.60;22.20;;;8.50;69.30;;;;;;5072532;28;20234;-76
2021/03/12 07:38:07;;;;;;;23.67;22.27;;;8.60;68.90;;;;;;5072828;28;20560;-76
2021/03/12 07:40:34;;;;;;;23.92;22.25;;;8.70;68.80;;;;;;5072704;28;20249;-76
2021/03/12 07:43:01;;;;;;;23.33;21.80;;;8.80;68.50;;;;;;5072583;28;20231;-76
2021/03/12 07:45:28;;;;;;;25.95;24.40;;;8.80;67.80;;;;;;5072466;28;20218;-79
2021/03/12 07:47:56;;;;;;;23.58;22.27;;;8.70;68.20;;;;;;5072613;28;20671;-76
2021/03/12 07:50:29;;;;;;;23.52;22.15;;;8.70;68.40;;;;;;5072411;28;20223;-76
2021/03/12 07:52:55;;;;;;;23.65;22.35;;;8.80;67.40;;;;;;5072611;28;20268;-76
2021/03/12 07:55:48;;;;;;;23.85;22.55;;;8.90;67.60;;;;;;5072736;28;20308;-76
2021/03/12 07:59:02;;;;;;;23.67;22.38;;;8.80;67.40;;;;;;5072465;28;20196;-76
2021/03/12 08:01:47;;;;;;;23.92;22.35;;;8.80;66.70;;;;;;5072663;28;20222;-76
2021/03/12 08:04:30;;;;;;;23.92;22.33;;;8.70;67.00;;;;;;5072515;28;20310;-76
2021/03/12 08:06:57;;;;;;;22.38;21.17;;;8.60;67.20;;;;;;5072389;28;20253;-76
2021/03/12 08:09:31;;;;;;;23.83;22.23;;;8.60;67.50;;;;;;5072457;28;20211;-76
2021/03/12 08:11:58;;;;;;;27.10;25.67;;;8.50;67.50;;;;;;5072401;28;20301;-76
2021/03/12 08:14:25;;;;;;;23.65;22.25;;;8.50;67.90;;;;;;5072823;28;20191;-76
2021/03/12 08:17:16;;;;;;;23.48;22.08;;;8.50;67.50;;;;;;5072175;28;20688;-76
2021/03/12 08:19:48;;;;;;;24.70;23.05;;;8.60;67.40;;;;;;5072257;28;20717;-76
2021/03/12 08:22:42;;;;;;;23.52;22.02;;;8.60;66.80;;;;;;5072407;28;20192;-76
2021/03/12 08:25:10;;;;;;;24.52;22.92;;;8.60;66.40;;;;;;5072457;28;20283;-76
2021/03/12 08:27:38;;;;;;;24.45;23.02;;;8.80;66.20;;;;;;5072097;28;20200;-76
2021/03/12 08:30:06;;;;;;;25.10;23.50;;;8.90;66.40;;;;;;5072181;28;20216;-76
2021/03/12 08:32:44;;;;;;;28.40;26.98;;;9.20;66.90;;;;;;5072123;28;20215;-76
2021/03/12 08:35:39;;;;;;;26.30;24.67;;;9.50;65.20;;;;;;5072285;28;20614;-76
2021/03/12 08:38:22;;;;;;;26.05;24.55;;;9.90;65.50;;;;;;5072021;28;20257;-76
2021/03/12 08:40:55;;;;;;;26.35;24.85;;;10.00;63.70;;;;;;5072064;28;20196;-76
2021/03/12 08:43:24;;;;;;;26.30;24.70;;;10.10;63.50;;;;;;5072124;28;20195;-75
2021/03/12 08:45:52;;;;;;;24.83;23.38;;;10.10;63.30;;;;;;5071764;28;20200;-76
2021/03/12 08:48:20;;;;;;;23.55;22.15;;;10.10;62.80;;;;;;5072189;28;20278;-76
2021/03/12 08:50:53;;;;;;;24.38;23.00;;;10.10;62.20;;;;;;5071875;28;20303;-76
2021/03/12 08:53:20;;;;;;;25.77;23.83;;;9.90;62.80;;;;;;5073135;28;20203;-76
2021/03/12 08:55:48;;;;;;;25.17;23.67;;;9.80;63.00;;;;;;5075631;28;20662;-76
2021/03/12 08:58:16;;;;;;;25.30;23.80;;;9.80;62.80;;;;;;5075649;28;20291;-76
2021/03/12 09:00:45;;;;;;;24.63;23.17;;;9.80;62.20;;;;;;5075656;28;20279;-76
2021/03/12 09:03:19;;;;;;;24.95;23.65;;;9.80;62.50;;;;;;5075473;28;20212;-76
2021/03/12 09:05:48;;;;;;;24.98;23.20;;;9.80;61.90;;;;;;5075419;28;20191;-76
2021/03/12 09:08:20;;;;;;;24.27;22.70;;;9.90;61.30;;;;;;5075439;28;20204;-76
2021/03/12 09:10:47;;;;;;;24.05;22.73;;;10.00;60.00;;;;;;5075561;28;20223;-76
2021/03/12 09:13:18;;;;;;;24.95;23.45;;;10.30;60.90;;;;;;5075470;28;20291;-77
2021/03/12 09:15:45;;;;;;;28.45;27.00;;;10.50;57.90;;;;;;5075261;28;20287;-76
2021/03/12 09:18:16;;;;;;;23.45;22.15;;;10.50;57.60;;;;;;5075224;28;20193;-76
2021/03/12 09:20:44;;;;;;;25.05;23.58;;;10.30;57.20;;;;;;5075263;28;20199;-76
2021/03/12 09:23:10;;;;;;;22.98;21.77;;;10.30;57.40;;;;;;5075296;28;20657;-76
2021/03/12 09:25:38;;;;;;;24.67;23.27;;;10.30;56.90;;;;;;5075057;28;20291;-76
2021/03/12 09:28:08;;;;;;;23.83;22.38;;;10.40;57.60;;;;;;5074954;28;20192;-76
2021/03/12 09:30:36;;;;;;;26.90;25.50;;;10.50;57.50;;;;;;5075079;28;20196;-76
2021/03/12 09:33:04;;;;;;;28.00;26.40;;;10.60;57.40;;;;;;5074991;28;20458;-76
2021/03/12 09:35:31;;;;;;;24.25;22.90;;;10.70;57.10;;;;;;5074998;28;20291;-76
2021/03/12 09:37:59;;;;;;;24.25;22.83;;;10.80;57.40;;;;;;5074934;28;20853;-76
2021/03/12 09:40:39;;;;;;;23.95;22.55;;;10.90;56.50;;;;;;5075044;28;20232;-76
2021/03/12 09:43:06;;;;;;;24.38;22.92;;;11.00;56.30;;;;;;5074940;28;20200;-76
2021/03/12 09:45:32;;;;;;;27.20;25.80;;;11.00;56.60;;;;;;5074563;28;20260;-77
2021/03/12 09:47:59;;;;;;;23.40;22.10;;;11.00;56.70;;;;;;5074948;28;20458;-76
2021/03/12 09:50:27;;;;;;;24.37;22.83;;;11.00;56.00;;;;;;5074322;28;20476;-76
2021/03/12 09:52:55;;;;;;;24.20;22.80;;;11.10;56.00;;;;;;5074687;28;20458;-76
2021/03/12 09:55:23;;;;;;;25.67;24.20;;;11.10;56.30;;;;;;5074777;28;20458;-76
2021/03/12 09:57:50;;;;;;;23.97;22.60;;;11.20;56.30;;;;;;5074479;28;20536;-76
2021/03/12 10:00:26;;;;;;;24.20;22.80;;;11.30;56.60;;;;;;5074499;28;20470;-76
2021/03/12 10:02:55;;;;;;;24.50;23.10;;;11.40;55.80;;;;;;5074480;28;20855;-76
2021/03/12 10:05:24;;;;;;;24.07;22.57;;;11.40;55.80;;;;;;5074334;28;20458;-76
2021/03/12 10:07:51;;;;;;;25.33;23.77;;;11.50;56.20;;;;;;5074233;28;20827;-76
2021/03/12 10:10:21;;;;;;;25.67;23.97;;;11.40;56.00;;;;;;5074377;28;20561;-76
2021/03/12 10:12:49;;;;;;;24.33;22.93;;;11.40;56.20;;;;;;5074515;28;20482;-76
2021/03/12 10:15:18;;;;;;;24.00;22.40;;;11.20;56.80;;;;;;5074281;28;20492;-76
2021/03/12 10:17:46;;;;;;;23.90;22.50;;;11.30;57.00;;;;;;5074065;28;20457;-76
2021/03/12 10:20:21;;;;;;;24.23;22.80;;;11.60;56.50;;;;;;5074008;28;20474;-76
2021/03/12 10:22:50;;;;;;;23.83;22.30;;;11.70;56.20;;;;;;5074208;28;20446;-75
2021/03/12 10:25:18;;;;;;;24.20;22.80;;;11.60;56.10;;;;;;5074081;28;20963;-76
2021/03/12 10:27:46;;;;;;;24.27;22.87;;;11.60;56.30;;;;;;5074021;28;20450;-76
2021/03/12 10:30:15;;;;;;;23.40;22.10;;;11.60;57.10;;;;;;5073952;28;20557;-76
2021/03/12 10:32:45;;;;;;;25.40;24.10;;;11.50;57.90;;;;;;5073737;28;20470;-75
2021/03/12 10:35:29;;;;;;;24.70;23.20;;;11.40;59.00;;;;;;5073903;28;20484;-76
2021/03/12 10:37:57;;;;;;;24.07;22.67;;;11.50;59.90;;;;;;5073887;28;20461;-76
2021/03/12 10:40:25;;;;;;;23.70;22.30;;;11.70;60.50;;;;;;5073756;28;20477;-76
2021/03/12 10:42:51;;;;;;;25.57;23.87;;;12.10;60.10;;;;;;5073706;28;20457;-76
2021/03/12 10:45:27;;;;;;;25.23;23.40;;;12.40;60.00;;;;;;5073462;28;20515;-76
2021/03/12 10:48:03;;;;;;;24.90;23.17;;;12.70;59.90;;;;;;5073736;28;20500;-76
2021/03/12 10:50:32;;;;;;;24.17;22.80;;;12.90;58.40;;;;;;5073471;28;20549;-77
2021/03/12 10:53:11;;;;;;;24.77;23.07;;;12.80;58.70;;;;;;5073592;28;20507;-76
2021/03/12 10:55:40;;;;;;;29.70;27.73;;;12.80;58.30;;;;;;5073231;28;20510;-75
2021/03/12 10:58:20;;;;;;;24.07;22.67;;;12.70;57.40;;;;;;5073395;28;20948;-76
2021/03/12 11:00:46;;;;;;;27.73;25.93;;;12.30;58.40;;;;;;5073501;28;20454;-76
2021/03/12 11:03:13;;;;;;;26.30;24.57;;;12.00;61.10;;;;;;5073211;28;20462;-76
2021/03/12 11:05:39;;;;;;;24.10;22.80;;;11.70;61.80;;;;;;5073278;28;20458;-76
2021/03/12 11:08:06;;;;;;;23.30;22.00;;;11.60;61.60;;;;;;5073255;28;20540;-76
2021/03/12 11:10:32;;;;;;;23.03;21.73;;;11.50;60.80;;;;;;5073283;28;20485;-76
2021/03/12 11:12:59;;;;;;;22.77;21.60;;;11.40;60.60;;;;;;5073162;28;20996;-76
2021/03/12 11:15:25;;;;;;;23.20;21.73;;;11.30;59.50;;;;;;5073051;28;20451;-76
2021/03/12 11:17:51;;;;;;;23.63;22.43;;;11.40;59.60;;;;;;5072899;28;20457;-76
2021/03/12 11:20:21;;;;;;;24.73;23.43;;;11.30;56.60;;;;;;5073079;28;20840;-76
2021/03/12 11:22:49;;;;;;;22.97;21.67;;;11.30;56.80;;;;;;5073142;28;20446;-76
2021/03/12 11:25:17;;;;;;;23.83;22.30;;;11.30;56.00;;;;;;5073167;28;20461;-76
2021/03/12 11:27:44;;;;;;;23.63;22.33;;;11.30;55.60;;;;;;5072984;28;20453;-76
2021/03/12 11:30:13;;;;;;;22.67;21.43;;;11.30;55.70;;;;;;5073105;28;20470;-77
2021/03/12 11:32:40;;;;;;;22.90;21.70;;;11.40;55.10;;;;;;5073105;28;20484;-76
2021/03/12 11:35:08;;;;;;;22.60;21.40;;;11.50;54.20;;;;;;5073020;28;20457;-76
2021/03/12 11:37:36;;;;;;;23.20;21.90;;;11.70;54.20;;;;;;5072816;28;20469;-76
2021/03/12 11:40:03;;;;;;;22.60;21.30;;;11.90;54.60;;;;;;5072951;28;20480;-76
2021/03/12 11:42:29;;;;;;;23.10;21.80;;;12.10;53.60;;;;;;5072940;28;20448;-77
2021/03/12 11:44:56;;;;;;;22.73;21.53;;;12.30;53.50;;;;;;5072393;28;20453;-76
2021/03/12 11:47:22;;;;;;;23.50;22.00;;;12.40;51.00;;;;;;5072738;28;20458;-76
2021/03/12 11:49:49;;;;;;;23.00;21.50;;;12.20;51.90;;;;;;5072862;28;20557;-76
2021/03/12 11:52:16;;;;;;;23.10;21.90;;;12.20;52.30;;;;;;5072559;28;20478;-76
2021/03/12 11:54:44;;;;;;;22.80;21.60;;;12.30;52.00;;;;;;5073908;28;20936;-79
2021/03/12 11:57:10;;;;;;;23.20;21.87;;;12.40;52.10;;;;;;5072673;28;20533;-76
2021/03/12 11:59:37;;;;;;;23.83;22.53;;;12.10;50.80;;;;;;5072664;28;20474;-76
2021/03/12 12:02:03;;;;;;;25.00;23.60;;;11.80;51.60;;;;;;5073302;28;21078;-76
2021/03/12 12:04:29;;;;;;;23.53;22.20;;;11.50;52.70;;;;;;5072576;28;20471;-76
2021/03/12 12:06:58;;;;;;;23.00;21.80;;;11.50;53.00;;;;;;5072523;28;20537;-76
2021/03/12 12:09:25;;;;;;;22.77;21.57;;;11.20;50.50;;;;;;5072661;28;20470;-76
2021/03/12 12:11:52;;;;;;;23.13;21.93;;;11.10;51.80;;;;;;5072563;28;20474;-76
2021/03/12 12:14:20;;;;;;;23.50;22.13;;;11.20;49.80;;;;;;5072772;28;20499;-76
2021/03/12 12:16:47;;;;;;;23.57;22.30;;;11.10;50.00;;;;;;5072362;28;20454;-76
2021/03/12 12:19:16;;;;;;;26.00;24.50;;;11.30;49.10;;;;;;5072366;28;20473;-76
2021/03/12 12:21:43;;;;;;;23.90;22.60;;;11.50;48.40;;;;;;5072465;28;20495;-76
2021/03/12 12:24:09;;;;;;;23.60;22.23;;;11.70;47.30;;;;;;5072691;28;20533;-76
2021/03/12 12:26:36;;;;;;;24.23;22.83;;;12.00;47.70;;;;;;5072208;28;20529;-76
2021/03/12 12:29:05;;;;;;;26.37;24.80;;;12.30;47.70;;;;;;5074885;28;20543;-79
2021/03/12 12:31:32;;;;;;;24.20;22.80;;;12.50;47.80;;;;;;5076228;28;20482;-76
2021/03/12 12:33:58;;;;;;;24.90;23.47;;;12.50;47.90;;;;;;5076280;28;20449;-76
2021/03/12 12:36:25;;;;;;;25.27;23.83;;;12.60;48.10;;;;;;5076126;28;20452;-76
2021/03/12 12:38:52;;;;;;;24.60;23.20;;;12.60;48.40;;;;;;5076149;28;20484;-76
2021/03/12 12:41:19;;;;;;;25.80;24.30;;;12.40;47.90;;;;;;5075993;28;20958;-76